Time;durP1;ratioP1;P1;durP2;ratioP2;P2;SDS_P1;SDS_P2;PMS_P1;PMS_P2;Temp;Humidity;BMP_temperature;BMP_pressure;BME280_temperature;BME280_humidity;BME280_pressure;Samples;Min_cycle;Max_cycle;Signal;HPM_P1;HPM_P2
2021/11/15 00:02:15;;;;;;;76.27;31.60;;;;;;;5.97;100.00;102414.75;7398658;19;20415;-44
2021/11/15 00:04:48;;;;;;;78.30;32.53;;;;;;;5.94;100.00;102400.91;7405988;19;20409;-48
2021/11/15 00:07:17;;;;;;;74.77;29.90;;;;;;;5.92;100.00;102401.53;7399365;19;20399;-45
2021/11/15 00:09:47;;;;;;;79.33;32.63;;;;;;;5.92;100.00;102401.53;7400673;19;20688;-45
2021/11/15 00:12:18;;;;;;;58.63;22.03;;;;;;;5.92;100.00;102393.84;7398249;19;20410;-45
2021/11/15 00:14:47;;;;;;;79.33;32.33;;;;;;;5.89;100.00;102397.03;7400267;19;20391;-45
2021/11/15 00:17:17;;;;;;;72.83;32.10;;;;;;;6.01;100.00;102394.63;7395751;19;20406;-44
2021/11/15 00:19:49;;;;;;;77.37;31.93;;;;;;;5.90;100.00;102397.94;7398644;19;20385;-45
2021/11/15 00:22:19;;;;;;;80.43;32.70;;;;;;;5.91;100.00;102394.63;7395596;19;20426;-45
2021/11/15 00:24:48;;;;;;;82.87;32.50;;;;;;;6.02;100.00;102385.28;7398806;19;20463;-46
2021/11/15 00:27:18;;;;;;;76.03;31.40;;;;;;;6.01;100.00;102389.50;7394082;19;20392;-43
2021/11/15 00:29:47;;;;;;;83.40;33.37;;;;;;;5.90;100.00;102382.59;7398256;19;20462;-45
2021/11/15 00:32:18;;;;;;;84.93;31.60;;;;;;;5.89;100.00;102389.34;7395401;19;20400;-45
2021/11/15 00:34:50;;;;;;;81.20;33.20;;;;;;;5.98;100.00;102384.13;7398906;19;20390;-44
2021/11/15 00:37:19;;;;;;;83.33;32.20;;;;;;;5.91;100.00;102380.13;7395430;19;20488;-48
2021/11/15 00:39:49;;;;;;;90.43;33.63;;;;;;;6.02;100.00;102388.81;7398573;19;20386;-44
2021/11/15 00:42:19;;;;;;;82.90;32.50;;;;;;;6.35;100.00;102381.28;7395059;19;20484;-47
2021/11/15 00:44:49;;;;;;;80.63;32.43;;;;;;;6.72;100.00;102378.38;7399274;19;20458;-43
2021/11/15 00:47:18;;;;;;;82.53;30.93;;;;;;;7.30;100.00;102373.66;7396579;19;20416;-44
2021/11/15 00:49:50;;;;;;;79.53;31.73;;;;;;;7.66;100.00;102374.84;7402566;19;20387;-46
2021/11/15 00:52:20;;;;;;;74.53;30.30;;;;;;;7.76;100.00;102385.84;7395321;19;20419;-45
2021/11/15 00:54:50;;;;;;;80.27;32.30;;;;;;;7.79;100.00;102384.41;7399330;19;20394;-45
2021/11/15 00:57:19;;;;;;;71.70;30.67;;;;;;;7.41;100.00;102383.16;7395440;19;20715;-47
2021/11/15 00:59:49;;;;;;;85.17;32.80;;;;;;;7.60;100.00;102383.72;7398066;19;20401;-43
2021/11/15 01:02:20;;;;;;;78.70;31.20;;;;;;;7.48;100.00;102391.34;7395043;19;20479;-44
2021/11/15 01:04:52;;;;;;;75.93;28.77;;;;;;;7.22;100.00;102385.00;7398846;19;20384;-45
2021/11/15 01:07:21;;;;;;;73.90;31.57;;;;;;;7.31;100.00;102385.72;7395161;19;20478;-43
2021/11/15 01:09:52;;;;;;;71.83;31.07;;;;;;;7.28;100.00;102380.38;7396621;19;20404;-47
2021/11/15 01:12:21;;;;;;;70.63;29.63;;;;;;;7.49;100.00;102386.31;7395178;19;20860;-44
2021/11/15 01:14:51;;;;;;;71.47;30.80;;;;;;;7.29;100.00;102388.16;7398657;19;20394;-47
2021/11/15 01:17:21;;;;;;;73.00;30.70;;;;;;;7.00;100.00;102383.22;7395311;19;20411;-45
2021/11/15 01:19:53;;;;;;;83.13;29.90;;;;;;;7.76;100.00;102386.75;7397754;19;20398;-46
2021/11/15 01:22:22;;;;;;;80.50;31.30;;;;;;;7.65;100.00;102392.69;7395920;19;20887;-46
2021/11/15 01:24:52;;;;;;;77.53;30.30;;;;;;;7.26;100.00;102392.16;7402098;19;20446;-47
2021/11/15 01:27:21;;;;;;;76.97;30.77;;;;;;;6.92;100.00;102389.41;7394979;19;20412;-46
2021/11/15 01:29:51;;;;;;;79.87;31.40;;;;;;;6.87;100.00;102387.34;7397560;19;20467;-51
2021/11/15 01:32:21;;;;;;;73.87;29.63;;;;;;;6.68;100.00;102390.06;7394681;19;20794;-46
2021/11/15 01:34:53;;;;;;;85.07;33.60;;;;;;;6.54;100.00;102383.75;7398115;19;20730;-45
2021/11/15 01:37:22;;;;;;;76.17;30.60;;;;;;;6.50;100.00;102383.38;7394485;19;20524;-47
2021/11/15 01:39:52;;;;;;;77.40;30.60;;;;;;;6.44;100.00;102386.31;7398633;19;20747;-49
2021/11/15 01:42:22;;;;;;;72.40;30.80;;;;;;;6.53;100.00;102394.78;7394930;19;20398;-51
2021/11/15 01:44:52;;;;;;;73.30;29.07;;;;;;;6.61;100.00;102398.88;7399481;19;20477;-46
2021/11/15 01:47:21;;;;;;;74.87;29.47;;;;;;;6.20;100.00;102393.69;7391505;19;20418;-50
2021/11/15 01:49:54;;;;;;;75.87;30.00;;;;;;;6.16;100.00;102396.78;7397827;19;20719;-44
2021/11/15 01:52:23;;;;;;;79.93;30.13;;;;;;;6.10;100.00;102401.38;7391391;19;20486;-50
2021/11/15 01:54:52;;;;;;;84.40;32.57;;;;;;;6.15;100.00;102397.56;7398263;19;20851;-44
2021/11/15 01:57:22;;;;;;;79.67;29.67;;;;;;;6.13;100.00;102401.63;7395256;19;20418;-48
2021/11/15 01:59:52;;;;;;;79.20;29.83;;;;;;;6.09;100.00;102400.47;7398171;19;20384;-49
2021/11/15 02:02:26;;;;;;;79.40;32.80;;;;;;;6.18;100.00;102402.91;7389909;19;20407;-45
2021/11/15 02:04:58;;;;;;;78.37;29.57;;;;;;;6.11;100.00;102403.16;7399802;19;20394;-47
2021/11/15 02:07:28;;;;;;;80.73;31.13;;;;;;;6.12;100.00;102400.75;7393236;19;20428;-50
2021/11/15 02:09:57;;;;;;;79.60;30.73;;;;;;;6.27;100.00;102402.81;7396292;19;20860;-50
2021/11/15 02:12:28;;;;;;;89.13;32.23;;;;;;;6.26;100.00;102399.34;7392814;19;20418;-50
2021/11/15 02:14:57;;;;;;;80.77;31.33;;;;;;;6.20;100.00;102403.94;7396479;19;20398;-49
2021/11/15 02:17:27;;;;;;;82.57;31.93;;;;;;;6.11;100.00;102409.19;7393212;19;20418;-51
2021/11/15 02:20:01;;;;;;;84.10;32.73;;;;;;;6.10;100.00;102402.25;7397222;19;20434;-52
2021/11/15 02:22:33;;;;;;;80.30;31.63;;;;;;;6.02;100.00;102399.06;7395882;19;20428;-48
2021/11/15 02:25:06;;;;;;;82.67;33.23;;;;;;;6.00;100.00;102400.53;7406465;19;20401;-45
2021/11/15 02:27:36;;;;;;;76.73;31.27;;;;;;;6.10;100.00;102396.25;7402676;19;20491;-46
2021/11/15 02:30:07;;;;;;;80.73;31.13;;;;;;;6.13;100.00;102396.50;7405146;19;20398;-48
2021/11/15 02:32:37;;;;;;;81.73;31.23;;;;;;;6.21;100.00;102395.50;7401875;19;20415;-49
2021/11/15 02:35:07;;;;;;;89.07;31.67;;;;;;;6.16;100.00;102394.22;7406019;19;20474;-50
2021/11/15 02:37:40;;;;;;;91.83;32.20;;;;;;;6.15;100.00;102394.97;7401455;19;20414;-52
2021/11/15 02:40:12;;;;;;;91.60;32.87;;;;;;;6.12;100.00;102389.56;7406044;19;20474;-51
2021/11/15 02:42:42;;;;;;;85.07;30.47;;;;;;;6.10;100.00;102389.44;7403877;19;20514;-50
2021/11/15 02:45:13;;;;;;;77.63;31.87;;;;;;;6.27;100.00;102385.78;7408350;19;20410;-52
2021/11/15 02:47:42;;;;;;;81.83;31.23;;;;;;;6.17;100.00;102390.88;7404011;19;20515;-45
2021/11/15 02:50:15;;;;;;;81.27;32.67;;;;;;;6.26;100.00;102388.22;7406957;19;20466;-44
2021/11/15 02:52:49;;;;;;;94.27;32.17;;;;;;;6.15;100.00;102382.16;7402428;19;20897;-46
2021/11/15 02:55:22;;;;;;;74.43;30.30;;;;;;;6.16;100.00;102389.97;7408229;19;20829;-50
2021/11/15 02:57:53;;;;;;;85.83;31.10;;;;;;;6.17;100.00;102386.66;7403858;19;20446;-46
2021/11/15 03:00:26;;;;;;;80.87;31.50;;;;;;;6.17;100.00;102384.09;7407340;19;20412;-49
2021/11/15 03:02:57;;;;;;;84.03;32.23;;;;;;;5.95;100.00;102381.31;7403892;19;20466;-46
2021/11/15 03:05:29;;;;;;;84.63;32.70;;;;;;;5.79;100.00;102385.09;7407503;19;20406;-47
2021/11/15 03:08:04;;;;;;;88.23;33.47;;;;;;;5.73;100.00;102387.13;7403561;19;20914;-48
2021/11/15 03:10:34;;;;;;;92.63;32.00;;;;;;;5.71;100.00;102386.09;7406409;19;20397;-46
2021/11/15 03:13:05;;;;;;;89.30;34.80;;;;;;;5.71;100.00;102388.66;7402715;19;20512;-49
2021/11/15 03:15:37;;;;;;;91.43;32.10;;;;;;;5.62;100.00;102390.38;7408097;19;20446;-46
2021/11/15 03:18:08;;;;;;;96.60;34.00;;;;;;;5.61;100.00;102388.59;7400526;19;20566;-46
2021/11/15 03:20:41;;;;;;;104.63;35.27;;;;;;;5.65;100.00;102390.69;7403312;19;20451;-47
2021/11/15 03:23:15;;;;;;;96.37;35.57;;;;;;;5.68;100.00;102401.19;7396774;19;20416;-49
2021/11/15 03:25:45;;;;;;;96.20;33.80;;;;;;;5.60;100.00;102386.81;7406579;19;20418;-45
2021/11/15 03:28:16;;;;;;;106.33;36.00;;;;;;;5.62;100.00;102386.19;7400693;19;20488;-45
2021/11/15 03:30:47;;;;;;;101.27;34.03;;;;;;;5.53;100.00;102388.81;7402117;19;20438;-47
2021/11/15 03:33:17;;;;;;;86.70;32.57;;;;;;;5.57;100.00;102386.53;7396032;19;20476;-45
2021/11/15 03:35:46;;;;;;;103.47;33.43;;;;;;;5.54;100.00;102371.81;7403601;19;20393;-45
2021/11/15 03:38:19;;;;;;;96.47;33.73;;;;;;;5.55;100.00;102376.16;7396762;19;20902;-43
2021/11/15 03:40:49;;;;;;;91.17;32.47;;;;;;;5.50;100.00;102375.72;7402946;19;20396;-43
2021/11/15 03:43:18;;;;;;;104.47;35.60;;;;;;;5.56;100.00;102369.38;7398627;19;20433;-47
2021/11/15 03:45:49;;;;;;;99.63;34.40;;;;;;;5.58;100.00;102372.97;7403225;19;20399;-45
2021/11/15 03:48:20;;;;;;;100.77;34.73;;;;;;;5.56;100.00;102370.28;7397745;19;20425;-46
2021/11/15 03:50:54;;;;;;;101.83;35.90;;;;;;;5.51;100.00;102367.31;7402798;19;20409;-46
2021/11/15 03:53:29;;;;;;;103.53;34.90;;;;;;;5.44;100.00;102359.84;7395980;19;20420;-47
2021/11/15 03:55:59;;;;;;;106.97;35.63;;;;;;;5.43;100.00;102360.59;7403111;19;20402;-49
2021/11/15 03:58:28;;;;;;;94.07;32.80;;;;;;;5.43;100.00;102363.16;7399770;19;20435;-46
2021/11/15 04:01:02;;;;;;;94.37;34.77;;;;;;;5.60;100.00;102356.06;7406562;19;20398;-44
2021/11/15 04:03:34;;;;;;;101.50;34.60;;;;;;;5.58;100.00;102361.06;7399021;19;20512;-50
2021/11/15 04:06:06;;;;;;;92.63;34.17;;;;;;;5.52;100.00;102364.00;7402996;19;20393;-44
2021/11/15 04:08:38;;;;;;;102.13;35.20;;;;;;;5.49;100.00;102367.94;7399088;19;20461;-43
2021/11/15 04:11:09;;;;;;;98.27;34.30;;;;;;;5.51;100.00;102362.19;7401793;19;20393;-48
2021/11/15 04:13:41;;;;;;;103.20;34.53;;;;;;;5.52;100.00;102364.00;7398700;19;20412;-44
2021/11/15 04:16:13;;;;;;;97.17;34.10;;;;;;;5.58;100.00;102365.31;7402509;19;20394;-47
2021/11/15 04:18:45;;;;;;;103.00;34.50;;;;;;;5.48;100.00;102361.91;7398660;19;20453;-47
2021/11/15 04:21:17;;;;;;;111.30;34.67;;;;;;;5.44;100.00;102353.84;7401856;19;20400;-47
2021/11/15 04:23:49;;;;;;;97.50;33.67;;;;;;;5.52;100.00;102363.06;7398383;19;20527;-49
2021/11/15 04:26:19;;;;;;;99.13;33.70;;;;;;;5.44;100.00;102364.06;7406292;19;20397;-47
2021/11/15 04:28:49;;;;;;;99.13;34.97;;;;;;;5.43;100.00;102358.03;7400974;19;20522;-43
2021/11/15 04:31:18;;;;;;;102.70;34.33;;;;;;;5.36;100.00;102361.75;7401728;19;20396;-44
2021/11/15 04:33:48;;;;;;;100.30;33.30;;;;;;;5.37;100.00;102357.50;7398112;19;20702;-48
2021/11/15 04:36:17;;;;;;;99.47;32.70;;;;;;;5.34;100.00;102359.81;7401769;19;20387;-49
2021/11/15 04:38:50;;;;;;;99.33;32.70;;;;;;;5.31;100.00;102352.75;7400699;19;20508;-47
2021/11/15 04:41:20;;;;;;;105.97;33.80;;;;;;;5.35;100.00;102357.38;7401666;19;20391;-46
2021/11/15 04:43:50;;;;;;;93.83;34.07;;;;;;;5.36;100.00;102351.50;7397869;19;20526;-46
2021/11/15 04:46:20;;;;;;;89.83;32.10;;;;;;;5.32;100.00;102359.66;7401315;19;20383;-46
2021/11/15 04:48:51;;;;;;;107.03;33.80;;;;;;;5.33;100.00;102355.44;7400742;19;20436;-45
2021/11/15 04:51:20;;;;;;;97.30;31.73;;;;;;;5.31;100.00;102356.94;7402700;19;20402;-45
2021/11/15 04:53:52;;;;;;;101.47;33.47;;;;;;;5.29;100.00;102348.25;7396684;19;20413;-50
2021/11/15 04:56:21;;;;;;;93.37;33.47;;;;;;;5.35;100.00;102353.91;7402906;19;20490;-48
2021/11/15 04:58:51;;;;;;;92.13;32.63;;;;;;;5.35;100.00;102353.91;7394632;19;20423;-44
2021/11/15 05:01:21;;;;;;;88.93;33.37;;;;;;;5.33;100.00;102355.44;7398612;19;20704;-48
2021/11/15 05:03:50;;;;;;;97.67;33.40;;;;;;;5.36;100.00;102345.47;7394112;19;20435;-48
2021/11/15 05:06:20;;;;;;;100.43;35.27;;;;;;;5.34;100.00;102354.69;7398669;19;20460;-48
2021/11/15 05:08:52;;;;;;;105.47;33.47;;;;;;;5.33;100.00;102351.22;7391238;19;20427;-50
2021/11/15 05:11:22;;;;;;;101.80;32.40;;;;;;;5.25;100.00;102352.19;7399843;19;20389;-50
2021/11/15 05:13:51;;;;;;;89.00;30.40;;;;;;;5.14;100.00;102351.25;7394693;19;20878;-44
2021/11/15 05:16:21;;;;;;;91.63;31.90;;;;;;;5.17;100.00;102353.19;7398526;19;20378;-43
2021/11/15 05:18:50;;;;;;;104.77;32.77;;;;;;;5.19;100.00;102349.09;7390307;19;20404;-46
2021/11/15 05:21:20;;;;;;;97.57;31.60;;;;;;;5.13;100.00;102360.56;7397911;19;20447;-45
2021/11/15 05:23:53;;;;;;;88.70;30.80;;;;;;;5.09;100.00;102363.59;7390393;19;20415;-49
2021/11/15 05:26:23;;;;;;;95.20;30.27;;;;;;;5.03;100.00;102364.72;7398480;19;20389;-46
2021/11/15 05:28:54;;;;;;;83.33;30.17;;;;;;;5.08;100.00;102366.06;7395831;19;20920;-44
2021/11/15 05:31:23;;;;;;;73.07;29.23;;;;;;;5.02;100.00;102373.19;7398464;19;20471;-46
2021/11/15 05:33:53;;;;;;;85.53;30.27;;;;;;;4.94;100.00;102381.06;7391046;19;20460;-48
2021/11/15 05:36:22;;;;;;;86.67;31.60;;;;;;;4.92;100.00;102379.13;7398167;19;20392;-43
2021/11/15 05:38:54;;;;;;;87.80;30.90;;;;;;;4.86;100.00;102385.47;7390093;19;20423;-49
2021/11/15 05:41:24;;;;;;;76.83;29.00;;;;;;;5.49;100.00;102383.31;7398346;19;20466;-47
2021/11/15 05:43:54;;;;;;;84.60;30.57;;;;;;;5.87;100.00;102378.09;7394143;19;20415;-48
2021/11/15 05:46:23;;;;;;;81.23;30.27;;;;;;;6.12;100.00;102374.19;7398155;19;20420;-46
2021/11/15 05:48:53;;;;;;;75.87;29.83;;;;;;;6.17;100.00;102378.97;7389700;19;20420;-49
2021/11/15 05:51:23;;;;;;;71.73;28.73;;;;;;;6.13;100.00;102376.00;7398064;19;20469;-52
2021/11/15 05:53:57;;;;;;;77.50;29.67;;;;;;;6.55;100.00;102371.81;7391162;19;20483;-48
2021/11/15 05:56:26;;;;;;;71.53;28.00;;;;;;;6.66;100.00;102377.88;7397649;19;20401;-51
2021/11/15 05:58:56;;;;;;;69.37;28.77;;;;;;;6.83;100.00;102382.72;7394060;19;20416;-49
2021/11/15 06:01:25;;;;;;;64.57;28.67;;;;;;;6.88;100.00;102384.00;7400229;19;20471;-48
2021/11/15 06:03:55;;;;;;;72.37;29.23;;;;;;;6.89;100.00;102383.22;7390761;19;20448;-49
2021/11/15 06:06:24;;;;;;;62.63;27.17;;;;;;;6.89;100.00;102401.19;7398792;19;20755;-49
2021/11/15 06:08:56;;;;;;;61.60;26.17;;;;;;;7.12;100.00;102397.06;7390299;19;20425;-52
2021/11/15 06:11:26;;;;;;;63.83;26.27;;;;;;;7.14;100.00;102404.91;7398548;19;20453;-52
2021/11/15 06:13:56;;;;;;;63.23;25.83;;;;;;;7.22;100.00;102406.41;7393565;19;20449;-50
2021/11/15 06:16:25;;;;;;;66.70;27.80;;;;;;;6.81;100.00;102412.47;7398624;19;20380;-43
2021/11/15 06:18:55;;;;;;;66.43;27.50;;;;;;;6.12;100.00;102408.44;7390435;19;20885;-45
2021/11/15 06:21:24;;;;;;;61.03;27.30;;;;;;;5.87;100.00;102407.91;7398217;19;20393;-48
2021/11/15 06:23:56;;;;;;;56.60;26.07;;;;;;;5.71;100.00;102411.72;7391225;19;20692;-46
2021/11/15 06:26:26;;;;;;;71.17;28.23;;;;;;;5.54;100.00;102410.22;7398462;19;20387;-45
2021/11/15 06:28:55;;;;;;;66.23;28.37;;;;;;;5.48;100.00;102410.56;7393965;19;20477;-45
2021/11/15 06:31:25;;;;;;;68.80;27.27;;;;;;;5.48;100.00;102408.00;7397942;19;20394;-46
2021/11/15 06:33:54;;;;;;;63.73;26.33;;;;;;;5.45;100.00;102406.81;7389599;19;20429;-43
2021/11/15 06:36:25;;;;;;;62.73;26.13;;;;;;;5.42;100.00;102406.56;7397812;19;20394;-47
2021/11/15 06:38:58;;;;;;;69.90;29.10;;;;;;;5.38;100.00;102397.69;7388784;19;20874;-44
2021/11/15 06:41:29;;;;;;;65.37;28.40;;;;;;;5.36;100.00;102414.59;7397704;19;20903;-49
2021/11/15 06:43:59;;;;;;;60.13;26.90;;;;;;;5.31;100.00;102406.50;7394224;19;20877;-48
2021/11/15 06:46:29;;;;;;;63.00;28.00;;;;;;;5.30;100.00;102407.25;7399382;19;20409;-46
2021/11/15 06:48:59;;;;;;;65.80;27.27;;;;;;;5.32;100.00;102407.41;7389445;19;20420;-46
2021/11/15 06:51:38;;;;;;;63.57;27.93;;;;;;;5.30;100.00;102408.91;7397669;19;20758;-45
2021/11/15 06:54:10;;;;;;;64.27;27.10;;;;;;;5.32;100.00;102405.72;7388104;19;20443;-44
2021/11/15 06:56:40;;;;;;;62.90;26.53;;;;;;;5.32;100.00;102404.84;7397463;19;20723;-43
2021/11/15 06:59:10;;;;;;;65.17;28.40;;;;;;;5.32;100.00;102410.84;7395785;19;20453;-46
2021/11/15 07:01:39;;;;;;;63.97;27.17;;;;;;;5.32;100.00;102403.16;7397372;19;20470;-50
2021/11/15 07:04:11;;;;;;;68.83;27.50;;;;;;;5.33;100.00;102406.66;7389879;19;20424;-52
2021/11/15 07:06:43;;;;;;;95.30;39.53;;;;;;;5.40;100.00;102406.44;7399336;19;20914;-47
2021/11/15 07:09:17;;;;;;;111.30;43.87;;;;;;;5.52;100.00;102404.03;7392496;19;20830;-46
2021/11/15 07:11:47;;;;;;;114.93;46.80;;;;;;;5.53;100.00;102405.84;7404655;19;20399;-44
2021/11/15 07:14:17;;;;;;;126.17;50.57;;;;;;;5.55;100.00;102404.34;7398712;19;20440;-46
2021/11/15 07:16:46;;;;;;;78.10;32.10;;;;;;;5.55;100.00;102404.34;7399827;19;20464;-44
2021/11/15 07:19:16;;;;;;;70.03;29.30;;;;;;;5.42;100.00;102406.56;7394471;19;20518;-51
2021/11/15 07:21:46;;;;;;;84.80;35.17;;;;;;;5.45;100.00;102407.75;7408611;19;20396;-44
2021/11/15 07:24:18;;;;;;;87.80;36.10;;;;;;;5.51;100.00;102405.72;7398074;19;20439;-45
2021/11/15 07:26:48;;;;;;;77.57;31.10;;;;;;;5.52;100.00;102399.84;7405797;19;20858;-50
2021/11/15 07:29:17;;;;;;;63.83;27.37;;;;;;;5.46;100.00;102404.41;7399349;19;20417;-48
2021/11/15 07:31:47;;;;;;;73.40;31.20;;;;;;;5.51;100.00;102403.16;7403674;19;20910;-47
2021/11/15 07:34:17;;;;;;;69.10;30.63;;;;;;;5.52;100.00;102398.94;7395162;19;20443;-44
2021/11/15 07:36:46;;;;;;;70.30;29.70;;;;;;;5.52;100.00;102399.84;7408307;19;20473;-49
2021/11/15 07:39:18;;;;;;;76.23;31.17;;;;;;;5.55;100.00;102396.66;7395781;19;20424;-51
2021/11/15 07:41:49;;;;;;;74.03;29.67;;;;;;;5.53;100.00;102399.06;7403511;19;20847;-45
2021/11/15 07:44:18;;;;;;;66.43;28.37;;;;;;;5.46;100.00;102394.16;7399752;19;20487;-48
2021/11/15 07:46:51;;;;;;;65.03;27.90;;;;;;;5.44;100.00;102392.22;7403175;19;20389;-46
2021/11/15 07:49:20;;;;;;;69.23;29.97;;;;;;;5.54;100.00;102393.19;7394576;19;20423;-46
2021/11/15 07:51:49;;;;;;;63.80;27.60;;;;;;;5.51;100.00;102387.81;7403956;19;20380;-45
2021/11/15 07:54:21;;;;;;;62.27;28.70;;;;;;;5.57;100.00;102386.53;7394029;19;20455;-43
2021/11/15 07:56:51;;;;;;;60.10;26.73;;;;;;;5.53;100.00;102390.47;7403015;19;20396;-47
2021/11/15 07:59:21;;;;;;;59.67;26.83;;;;;;;5.51;100.00;102392.94;7399174;19;20719;-45
2021/11/15 08:01:50;;;;;;;60.70;27.50;;;;;;;5.53;100.00;102395.59;7400970;19;20456;-46
2021/11/15 08:04:20;;;;;;;59.47;26.63;;;;;;;5.61;100.00;102394.63;7400762;19;20477;-44
2021/11/15 08:06:50;;;;;;;54.77;25.97;;;;;;;5.62;100.00;102395.50;7400080;19;20391;-45
2021/11/15 08:09:22;;;;;;;53.73;24.47;;;;;;;5.60;100.00;102402.16;7392099;19;20520;-46
2021/11/15 08:11:54;;;;;;;69.23;31.07;;;;;;;5.65;100.00;102400.91;7400537;19;20380;-47
2021/11/15 08:14:23;;;;;;;64.67;28.57;;;;;;;5.66;100.00;102403.59;7398878;19;20503;-49
2021/11/15 08:16:53;;;;;;;59.63;26.70;;;;;;;5.65;100.00;102400.91;7400311;19;20471;-48
2021/11/15 08:19:23;;;;;;;66.00;27.40;;;;;;;5.68;100.00;102407.22;7395927;19;20437;-48
2021/11/15 08:21:53;;;;;;;52.30;24.70;;;;;;;5.65;100.00;102406.91;7400448;19;20409;-46
2021/11/15 08:25:30;;;;;;;54.37;24.67;;;;;;;5.57;100.00;102409.56;7391340;19;20445;-50
2021/11/15 08:28:00;;;;;;;55.83;25.27;;;;;;;5.61;100.00;102420.25;7397204;19;20480;-47
2021/11/15 08:30:30;;;;;;;55.80;23.90;;;;;;;5.61;100.00;102416.75;7399928;19;20389;-46
2021/11/15 08:33:00;;;;;;;58.93;25.37;;;;;;;5.60;100.00;102426.13;7392877;19;20460;-48
2021/11/15 08:35:29;;;;;;;54.03;24.30;;;;;;;5.58;100.00;102421.63;7398474;19;20457;-47
2021/11/15 08:38:32;;;;;;;60.03;25.80;;;;;;;5.66;100.00;102433.44;7392275;19;20510;-44
2021/11/15 08:41:04;;;;;;;54.10;23.80;;;;;;;5.65;100.00;102427.41;7398205;19;20393;-48
2021/11/15 08:43:33;;;;;;;47.70;24.10;;;;;;;5.60;100.00;102428.69;7399657;19;20439;-46
2021/11/15 08:46:03;;;;;;;56.93;24.83;;;;;;;5.63;100.00;102423.81;7399594;19;20396;-48
2021/11/15 08:48:33;;;;;;;54.80;24.70;;;;;;;5.63;100.00;102428.94;7393696;19;20416;-51
2021/11/15 08:51:04;;;;;;;47.20;23.67;;;;;;;5.63;100.00;102416.16;7399915;19;20404;-44
2021/11/15 08:53:34;;;;;;;52.60;23.93;;;;;;;5.59;100.00;102429.44;7394104;19;20459;-47
2021/11/15 08:56:07;;;;;;;49.13;23.80;;;;;;;5.51;100.00;102426.22;7400895;19;20917;-47
2021/11/15 08:58:37;;;;;;;55.30;25.70;;;;;;;5.48;100.00;102413.13;7397701;19;20456;-50
2021/11/15 09:01:08;;;;;;;57.50;25.30;;;;;;;5.50;100.00;102414.16;7399737;19;20390;-48
2021/11/15 09:03:41;;;;;;;52.10;24.13;;;;;;;5.57;100.00;102420.72;7394825;19;20441;-51
2021/11/15 09:06:11;;;;;;;43.63;22.00;;;;;;;5.55;100.00;102419.69;7400774;19;20392;-52
2021/11/15 09:08:43;;;;;;;53.60;24.00;;;;;;;5.47;100.00;102419.00;7393057;19;20492;-51
2021/11/15 09:11:16;;;;;;;55.33;24.00;;;;;;;5.53;100.00;102421.19;7399555;19;20393;-49
2021/11/15 09:13:47;;;;;;;52.40;23.50;;;;;;;5.49;100.00;102420.03;7397255;19;20429;-50
2021/11/15 09:16:17;;;;;;;53.70;23.93;;;;;;;5.49;100.00;102414.91;7400728;19;20445;-50
2021/11/15 09:18:51;;;;;;;56.03;25.33;;;;;;;5.54;100.00;102417.91;7392965;19;20446;-46
2021/11/15 09:21:20;;;;;;;54.27;23.80;;;;;;;5.92;100.00;102419.47;7400256;19;20462;-51
2021/11/15 09:23:50;;;;;;;60.93;27.20;;;;;;;6.31;100.00;102418.59;7392572;19;20416;-51
2021/11/15 09:26:26;;;;;;;82.60;37.97;;;;;;;7.17;100.00;102412.84;7400068;19;20394;-52
2021/11/15 09:28:56;;;;;;;51.77;24.17;;;;;;;6.68;100.00;102427.63;7399010;19;20477;-51
2021/11/15 09:31:26;;;;;;;48.27;23.50;;;;;;;6.51;100.00;102429.63;7398206;19;20401;-44
2021/11/15 09:33:56;;;;;;;75.67;34.87;;;;;;;6.71;100.00;102436.47;7392435;19;20416;-45
2021/11/15 09:36:27;;;;;;;54.57;25.20;;;;;;;6.33;100.00;102442.72;7399995;19;20395;-44
2021/11/15 09:38:59;;;;;;;43.50;22.60;;;;;;;6.17;100.00;102444.72;7390589;19;20417;-46
2021/11/15 09:41:31;;;;;;;58.30;24.47;;;;;;;5.97;100.00;102442.91;7399759;19;20408;-46
2021/11/15 09:44:01;;;;;;;49.13;23.57;;;;;;;5.90;100.00;102444.06;7397508;19;21360;-43
2021/11/15 09:46:32;;;;;;;51.87;25.30;;;;;;;5.97;100.00;102441.28;7399324;19;20673;-47
2021/11/15 09:49:10;;;;;;;51.67;24.43;;;;;;;5.93;100.00;102434.06;7391269;19;20718;-47
2021/11/15 09:51:40;;;;;;;44.50;21.83;;;;;;;5.84;100.00;102433.28;7399680;19;20382;-45
2021/11/15 09:54:14;;;;;;;52.07;23.57;;;;;;;5.77;100.00;102437.88;7391498;19;20438;-45
2021/11/15 09:56:47;;;;;;;47.50;24.10;;;;;;;5.78;100.00;102429.41;7399407;19;20843;-47
2021/11/15 09:59:16;;;;;;;53.13;24.23;;;;;;;5.95;100.00;102430.00;7395361;19;20418;-48
2021/11/15 10:01:48;;;;;;;49.17;23.80;;;;;;;5.86;100.00;102436.88;7399184;19;20537;-46
2021/11/15 10:04:19;;;;;;;50.13;24.87;;;;;;;5.94;100.00;102443.53;7396456;19;20441;-44
2021/11/15 10:06:52;;;;;;;48.97;23.37;;;;;;;5.93;100.00;102434.06;7399265;19;20463;-44
2021/11/15 10:09:27;;;;;;;52.07;24.00;;;;;;;5.85;100.00;102429.94;7391354;19;20412;-46
2021/11/15 10:12:00;;;;;;;49.27;23.93;;;;;;;5.86;100.00;102432.66;7398975;19;20655;-46
2021/11/15 10:14:29;;;;;;;49.00;23.30;;;;;;;5.72;100.00;102428.88;7397875;19;20755;-46
2021/11/15 10:17:02;;;;;;;52.97;24.70;;;;;;;5.73;100.00;102427.19;7391824;19;20464;-45
2021/11/15 10:19:33;;;;;;;53.37;23.77;;;;;;;5.67;100.00;102425.91;7397626;19;20381;-46
2021/11/15 10:22:07;;;;;;;51.77;24.57;;;;;;;5.68;100.00;102422.56;7392041;19;20895;-44
2021/11/15 10:24:42;;;;;;;47.87;24.60;;;;;;;5.68;100.00;102421.66;7398330;19;20381;-46
2021/11/15 10:27:19;;;;;;;52.23;23.30;;;;;;;5.66;100.00;102415.53;7394942;19;20394;-45
2021/11/15 10:29:51;;;;;;;50.03;24.00;;;;;;;5.68;100.00;102412.34;7397604;19;20886;-45
2021/11/15 10:32:27;;;;;;;53.83;23.77;;;;;;;5.63;100.00;102412.66;7392633;19;20872;-45
2021/11/15 10:34:59;;;;;;;54.00;23.93;;;;;;;5.57;100.00;102407.91;7398119;19;20444;-45
2021/11/15 10:37:30;;;;;;;50.23;23.33;;;;;;;5.62;100.00;102408.31;7391087;19;20496;-46
2021/11/15 10:40:01;;;;;;;56.03;26.30;;;;;;;5.65;100.00;102401.81;7397834;19;20441;-48
2021/11/15 10:42:35;;;;;;;53.27;23.87;;;;;;;5.64;100.00;102394.88;7398498;19;20427;-44
2021/11/15 10:45:08;;;;;;;50.80;23.03;;;;;;;5.65;100.00;102400.91;7405503;19;20939;-45
2021/11/15 10:47:40;;;;;;;51.23;24.67;;;;;;;5.63;100.00;102405.00;7398235;19;20419;-49
2021/11/15 10:50:19;;;;;;;47.60;23.43;;;;;;;5.66;100.00;102407.84;7404985;19;20464;-50
2021/11/15 10:53:00;;;;;;;52.17;24.27;;;;;;;5.67;100.00;102407.97;7398336;19;20424;-44
2021/11/15 10:55:30;;;;;;;52.40;23.13;;;;;;;5.66;100.00;102410.41;7404048;19;20453;-45
2021/11/15 10:58:03;;;;;;;53.40;24.30;;;;;;;5.63;100.00;102417.78;7401816;19;20412;-49
2021/11/15 11:00:40;;;;;;;51.13;25.07;;;;;;;5.63;100.00;102417.78;7404528;19;20396;-47
2021/11/15 11:03:18;;;;;;;54.70;23.90;;;;;;;5.64;100.00;102419.63;7397984;19;20824;-49
2021/11/15 11:05:49;;;;;;;50.47;24.90;;;;;;;5.60;100.00;102402.16;7404962;19;20396;-44
2021/11/15 11:08:22;;;;;;;56.57;25.93;;;;;;;5.61;100.00;102406.53;7397315;19;20877;-45
2021/11/15 11:11:06;;;;;;;46.87;24.27;;;;;;;5.62;100.00;102398.06;7404241;19;20397;-45
2021/11/15 11:13:55;;;;;;;55.30;24.47;;;;;;;5.66;100.00;102390.78;7397094;19;20466;-46
2021/11/15 11:16:39;;;;;;;48.17;23.13;;;;;;;5.60;100.00;102384.25;7403128;19;20394;-49
2021/11/15 11:19:18;;;;;;;53.07;24.77;;;;;;;5.64;100.00;102384.66;7396381;19;20943;-44
2021/11/15 11:22:10;;;;;;;53.47;24.87;;;;;;;5.59;100.00;102370.53;7404400;19;20403;-50
2021/11/15 11:24:58;;;;;;;57.40;24.30;;;;;;;5.57;100.00;102378.84;7403757;19;20737;-45
2021/11/15 11:27:29;;;;;;;56.73;24.63;;;;;;;5.58;100.00;102373.84;7400533;19;20491;-48
2021/11/15 11:30:01;;;;;;;51.97;24.13;;;;;;;5.57;100.00;102376.28;7401629;19;20464;-52